Time;durP1;ratioP1;P1;durP2;ratioP2;P2;SDS_P1;SDS_P2;PMS_P1;PMS_P2;Temp;Humidity;BMP_temperature;BMP_pressure;BME280_temperature;BME280_humidity;BME280_pressure;Samples;Min_cycle;Max_cycle;Signal;HPM_P1;HPM_P2
2021/08/12 00:00:02;;;;;;;4.22;3.50;;;;;;;19.96;73.55;100359.10;1718155;82;21106;-39
2021/08/12 00:02:30;;;;;;;8.55;3.85;;;;;;;19.97;73.07;100363.91;1721830;82;21011;-41
2021/08/12 00:04:57;;;;;;;10.18;4.03;;;;;;;19.93;73.41;100360.60;1727290;82;21019;-40
2021/08/12 00:07:23;;;;;;;4.87;3.55;;;;;;;19.90;73.37;100358.13;1686589;84;21020;-39
2021/08/12 00:09:49;;;;;;;8.00;3.80;;;;;;;19.88;71.92;100355.58;1727332;82;21465;-40
2021/08/12 00:12:16;;;;;;;7.92;4.20;;;;;;;19.90;71.69;100359.44;1729087;82;21734;-39
2021/08/12 00:14:42;;;;;;;6.97;4.00;;;;;;;19.88;71.88;100366.08;1722486;82;21545;-41
2021/08/12 00:17:08;;;;;;;6.45;4.10;;;;;;;19.87;71.25;100362.25;1715625;83;20984;-39
2021/08/12 00:19:35;;;;;;;7.85;4.03;;;;;;;19.84;71.48;100370.31;1719955;82;20999;-40
2021/08/12 00:22:02;;;;;;;4.97;3.70;;;;;;;19.79;72.08;100376.66;1724834;82;20901;-41
2021/08/12 00:24:28;;;;;;;4.05;3.65;;;;;;;19.71;71.25;100368.87;1723215;82;21257;-40
2021/08/12 00:26:55;;;;;;;5.12;4.17;;;;;;;19.66;70.96;100369.13;1716410;81;21020;-41
2021/08/12 00:29:21;;;;;;;4.62;4.00;;;;;;;19.63;71.37;100370.62;1729686;82;21029;-41
2021/08/12 00:31:49;;;;;;;6.45;3.55;;;;;;;19.58;71.30;100377.89;1730379;82;21075;-40
2021/08/12 00:34:16;;;;;;;6.45;3.67;;;;;;;19.51;71.31;100370.38;1723373;82;20984;-40
2021/08/12 00:36:43;;;;;;;4.37;3.75;;;;;;;19.45;71.85;100372.05;1683372;84;21141;-39
2021/08/12 00:39:10;;;;;;;7.03;4.00;;;;;;;19.37;71.70;100371.66;1656802;85;21007;-40
2021/08/12 00:41:40;;;;;;;4.28;3.70;;;;;;;19.31;72.10;100375.92;1722477;82;20975;-40
2021/08/12 00:44:08;;;;;;;9.38;3.72;;;;;;;19.24;72.45;100374.12;1717502;82;20985;-40
2021/08/12 00:46:35;;;;;;;4.45;3.70;;;;;;;19.16;72.55;100376.31;1681257;84;21090;-40
2021/08/12 00:49:03;;;;;;;8.28;4.17;;;;;;;19.08;72.37;100374.14;1731720;82;21113;-38
2021/08/12 00:51:30;;;;;;;6.62;4.37;;;;;;;19.01;72.62;100374.08;1732435;82;21016;-38
2021/08/12 00:53:57;;;;;;;4.17;3.72;;;;;;;18.98;71.91;100379.47;1731165;82;21140;-40
2021/08/12 00:56:26;;;;;;;9.35;4.10;;;;;;;18.96;71.76;100387.44;1696964;82;20965;-39
2021/08/12 00:58:53;;;;;;;6.72;4.10;;;;;;;19.01;71.26;100386.74;1719301;83;20927;-39
2021/08/12 01:01:20;;;;;;;4.35;4.00;;;;;;;19.01;70.84;100389.37;1722609;81;21094;-40
2021/08/12 01:03:46;;;;;;;6.85;4.15;;;;;;;18.99;71.44;100391.68;1688541;84;21549;-39
2021/08/12 01:06:15;;;;;;;9.38;4.22;;;;;;;18.88;71.67;100390.47;1687472;84;22617;-40
2021/08/12 01:09:12;;;;;;;6.25;3.65;;;;;;;18.80;72.18;100396.13;1690219;84;21024;-41
2021/08/12 01:11:49;;;;;;;;;;;;;;;18.73;72.16;100397.39;1690196;85;20996;-40
2021/08/12 01:14:45;;;;;;;4.45;4.08;;;;;;;18.67;72.02;100405.11;1678363;85;26830;-40
2021/08/12 01:17:17;;;;;;;5.87;4.05;;;;;;;18.65;72.12;100403.03;1659127;84;21666;-39
2021/08/12 01:20:04;;;;;;;4.67;4.25;;;;;;;18.60;72.15;100399.82;1648231;86;21556;-39
2021/08/12 01:22:41;;;;;;;8.00;3.92;;;;;;;18.56;72.56;100406.61;1625318;85;21029;-42
2021/08/12 01:25:25;;;;;;;8.28;4.15;;;;;;;18.50;72.50;100407.77;1635874;86;21161;-40
2021/08/12 01:27:53;;;;;;;6.45;4.15;;;;;;;18.47;72.73;100406.17;1689418;84;21527;-39
2021/08/12 01:30:27;;;;;;;6.55;4.03;;;;;;;18.40;72.55;100405.26;1657048;86;21585;-39
2021/08/12 01:33:31;;;;;;;5.67;4.35;;;;;;;18.40;72.48;100402.16;1690419;84;21023;-40
2021/08/12 01:35:59;;;;;;;5.83;4.00;;;;;;;18.38;72.92;100402.25;1638298;85;21004;-39
2021/08/12 01:38:27;;;;;;;7.10;4.40;;;;;;;18.32;73.19;100409.13;1661733;86;21012;-40
2021/08/12 01:40:54;;;;;;;5.95;4.30;;;;;;;18.24;73.37;100411.28;1671427;83;21346;-39
2021/08/12 01:43:21;;;;;;;7.10;3.85;;;;;;;18.21;73.72;100415.38;1671105;84;21011;-41
2021/08/12 01:45:51;;;;;;;6.25;4.17;;;;;;;18.18;74.17;100412.91;1689630;84;21035;-41
2021/08/12 01:48:19;;;;;;;4.62;3.98;;;;;;;18.14;74.35;100425.78;1689862;84;20957;-40
2021/08/12 01:50:45;;;;;;;5.75;4.58;;;;;;;18.07;74.67;100420.86;1690517;84;21683;-39
2021/08/12 01:53:12;;;;;;;5.65;4.40;;;;;;;18.03;75.02;100424.53;1690114;84;21893;-41
2021/08/12 01:55:39;;;;;;;5.55;4.33;;;;;;;18.00;75.22;100429.90;1689963;84;21518;-40
2021/08/12 01:58:05;;;;;;;8.18;3.98;;;;;;;18.00;75.22;100425.97;1689933;84;21060;-38
2021/08/12 02:00:32;;;;;;;6.47;3.90;;;;;;;17.96;75.68;100429.67;1690258;84;20941;-41
2021/08/12 02:03:00;;;;;;;9.25;4.42;;;;;;;17.94;75.67;100428.91;1686205;84;21002;-40
2021/08/12 02:05:27;;;;;;;4.25;3.87;;;;;;;17.92;75.76;100429.45;1721935;82;21074;-38
2021/08/12 02:07:53;;;;;;;11.33;4.60;;;;;;;17.91;75.65;100434.30;1728396;82;21104;-40
2021/08/12 02:10:20;;;;;;;7.10;4.80;;;;;;;17.90;76.13;100441.77;1721750;82;21494;-40
2021/08/12 02:12:47;;;;;;;7.28;4.00;;;;;;;17.89;76.40;100442.21;1712322;83;20957;-39
2021/08/12 02:15:16;;;;;;;7.28;4.62;;;;;;;17.85;76.37;100443.77;1711875;83;21012;-39
2021/08/12 02:17:42;;;;;;;5.45;4.25;;;;;;;17.80;76.41;100452.67;1709982;83;21144;-40
2021/08/12 02:20:12;;;;;;;10.75;4.60;;;;;;;17.81;76.50;100453.09;1679089;84;21028;-40
2021/08/12 02:22:51;;;;;;;7.90;4.25;;;;;;;17.83;76.29;100453.47;1688996;83;20992;-40
2021/08/12 02:25:34;;;;;;;6.08;4.08;;;;;;;17.86;76.27;100454.63;1699078;83;20924;-39
2021/08/12 02:28:06;;;;;;;4.95;4.40;;;;;;;17.84;76.28;100464.33;1717917;83;21039;-41
2021/08/12 02:30:39;;;;;;;5.72;4.28;;;;;;;17.83;76.53;100453.47;1718382;82;21857;-41
2021/08/12 02:33:08;;;;;;;8.48;4.75;;;;;;;17.81;76.70;100457.45;1706334;82;21541;-40
2021/08/12 02:35:38;;;;;;;10.08;4.45;;;;;;;17.76;76.95;100458.98;1728804;82;21020;-41
2021/08/12 02:38:06;;;;;;;7.03;4.90;;;;;;;17.75;77.02;100462.52;1712616;83;21283;-40
2021/08/12 02:40:33;;;;;;;10.15;4.22;;;;;;;17.75;77.11;100459.08;1694026;83;20961;-40
2021/08/12 02:42:59;;;;;;;17.50;4.83;;;;;;;17.75;77.01;100466.45;1689489;83;21174;-42
2021/08/12 02:45:27;;;;;;;14.40;5.42;;;;;;;17.75;77.13;100470.86;1687603;84;21013;-39
2021/08/12 02:47:53;;;;;;;22.60;5.17;;;;;;;17.78;77.13;100476.77;1703562;83;21342;-39
2021/08/12 02:50:20;;;;;;;23.22;5.00;;;;;;;17.81;77.09;100475.34;1727074;83;20933;-41
2021/08/12 02:52:47;;;;;;;24.55;6.28;;;;;;;17.86;77.00;100478.19;1675922;84;20945;-40
2021/08/12 02:55:14;;;;;;;8.93;4.87;;;;;;;17.87;77.37;100481.19;1643399;85;21150;-41
2021/08/12 02:57:40;;;;;;;10.08;4.90;;;;;;;17.89;77.27;100483.27;1701660;83;20987;-40
2021/08/12 03:00:09;;;;;;;6.72;4.90;;;;;;;17.90;77.05;100483.18;1705823;83;21032;-40
2021/08/12 03:02:37;;;;;;;6.78;4.10;;;;;;;17.96;77.09;100483.34;1704237;83;21020;-40
2021/08/12 03:05:05;;;;;;;5.05;4.10;;;;;;;17.97;77.16;100477.19;1723156;82;21043;-39
2021/08/12 03:07:32;;;;;;;4.20;3.62;;;;;;;17.97;77.17;100473.27;1683771;84;21769;-38
2021/08/12 03:09:59;;;;;;;7.78;4.17;;;;;;;17.97;77.12;100465.88;1730518;82;21772;-39
2021/08/12 03:12:25;;;;;;;4.33;3.83;;;;;;;17.97;76.80;100477.19;1724066;82;20968;-38
2021/08/12 03:14:52;;;;;;;4.35;3.92;;;;;;;17.98;77.03;100472.34;1725295;82;20979;-39
2021/08/12 03:17:20;;;;;;;7.12;4.70;;;;;;;18.00;77.34;100484.89;1724408;82;21031;-40
2021/08/12 03:19:47;;;;;;;5.70;4.28;;;;;;;17.98;77.15;100482.81;1728040;82;21018;-41
2021/08/12 03:22:15;;;;;;;10.08;4.60;;;;;;;17.97;77.19;100490.28;1710779;82;21079;-39
2021/08/12 03:24:47;;;;;;;6.12;4.42;;;;;;;17.98;76.66;100496.38;1728395;82;20962;-39
2021/08/12 03:27:14;;;;;;;15.28;4.15;;;;;;;18.02;77.04;100496.64;1721911;82;21039;-41
2021/08/12 03:29:42;;;;;;;13.35;5.25;;;;;;;18.03;76.95;100501.79;1729600;82;20969;-41
2021/08/12 03:32:09;;;;;;;14.53;5.10;;;;;;;18.06;77.01;100498.19;1728816;82;20980;-40
2021/08/12 03:34:37;;;;;;;11.33;5.03;;;;;;;18.06;76.98;100508.22;1655610;85;20992;-41
2021/08/12 03:37:04;;;;;;;15.50;5.42;;;;;;;18.08;77.00;100501.57;1659345;85;20965;-40
2021/08/12 03:39:32;;;;;;;7.92;4.80;;;;;;;18.09;77.14;100498.03;1677283;84;21944;-41
2021/08/12 03:41:59;;;;;;;28.83;6.28;;;;;;;18.09;77.22;100498.89;1722583;82;21497;-41
2021/08/12 03:44:26;;;;;;;5.33;4.45;;;;;;;18.08;77.33;100505.05;1719695;83;21203;-39
2021/08/12 03:46:53;;;;;;;9.58;4.37;;;;;;;18.12;77.34;100504.42;1722378;82;20915;-40
2021/08/12 03:49:19;;;;;;;7.80;4.42;;;;;;;18.18;76.99;100502.80;1724299;82;20980;-39
2021/08/12 03:51:47;;;;;;;7.83;4.58;;;;;;;18.23;77.16;100507.82;1724685;82;21494;-39
2021/08/12 03:54:14;;;;;;;10.70;4.37;;;;;;;18.27;77.08;100507.22;1731835;82;21016;-40
2021/08/12 03:56:40;;;;;;;8.48;3.92;;;;;;;18.31;76.58;100515.30;1731442;82;21116;-41
2021/08/12 03:59:07;;;;;;;12.70;4.50;;;;;;;18.38;76.17;100511.00;1723780;82;20995;-39
2021/08/12 04:01:34;;;;;;;6.42;4.03;;;;;;;18.49;75.72;100507.83;1722329;82;21018;-40
2021/08/12 04:04:01;;;;;;;21.30;4.85;;;;;;;18.58;75.42;100513.08;1724712;82;20980;-40
2021/08/12 04:06:27;;;;;;;14.07;4.33;;;;;;;18.67;75.70;100515.66;1727927;82;20987;-40
2021/08/12 04:08:54;;;;;;;9.60;4.83;;;;;;;18.77;74.39;100517.34;1723293;82;21188;-41
2021/08/12 04:11:21;;;;;;;6.70;4.12;;;;;;;18.89;74.69;100519.34;1724319;82;21463;-41
2021/08/12 04:13:47;;;;;;;11.78;3.80;;;;;;;19.04;73.09;100515.54;1729208;82;20965;-40
2021/08/12 04:16:14;;;;;;;13.20;4.53;;;;;;;19.15;72.95;100525.02;1725427;82;20937;-41
2021/08/12 04:18:41;;;;;;;3.95;3.55;;;;;;;19.27;72.63;100531.83;1685230;84;20988;-41
2021/08/12 04:21:08;;;;;;;7.47;3.80;;;;;;;19.39;72.57;100529.39;1724956;82;21103;-40
2021/08/12 04:23:35;;;;;;;4.87;3.98;;;;;;;19.47;72.28;100530.77;1684551;84;21040;-40
2021/08/12 04:26:03;;;;;;;9.93;4.00;;;;;;;19.47;71.55;100539.96;1723090;82;20992;-40
2021/08/12 04:28:30;;;;;;;9.78;3.95;;;;;;;19.49;71.32;100536.78;1727982;82;21034;-41
2021/08/12 04:30:56;;;;;;;7.83;3.77;;;;;;;19.53;71.40;100531.27;1728297;82;20928;-41
2021/08/12 04:33:23;;;;;;;19.57;4.20;;;;;;;19.61;71.03;100532.64;1728881;82;21971;-41
2021/08/12 04:35:49;;;;;;;4.78;3.47;;;;;;;19.66;70.11;100533.22;1724948;82;20960;-40
2021/08/12 04:38:16;;;;;;;6.58;3.62;;;;;;;19.70;69.73;100540.45;1723758;82;20948;-40
2021/08/12 04:40:43;;;;;;;3.47;3.17;;;;;;;19.73;69.52;100545.06;1721329;82;20996;-39
2021/08/12 04:43:10;;;;;;;4.90;3.52;;;;;;;19.77;69.28;100538.71;1720020;83;21015;-41
2021/08/12 04:45:37;;;;;;;6.87;3.55;;;;;;;19.78;69.42;100539.57;1696837;83;21068;-41
2021/08/12 04:48:05;;;;;;;6.25;3.83;;;;;;;19.82;69.54;100539.29;1722080;83;21016;-42
2021/08/12 04:50:37;;;;;;;10.98;4.20;;;;;;;19.85;69.54;100544.02;1719652;83;22055;-41
2021/08/12 04:53:06;;;;;;;4.28;3.65;;;;;;;19.81;69.02;100549.90;1719853;83;21626;-42
2021/08/12 04:55:32;;;;;;;8.03;3.58;;;;;;;19.74;68.80;100545.45;1719728;83;20999;-41
2021/08/12 04:58:01;;;;;;;5.30;3.95;;;;;;;19.82;69.66;100554.22;1720073;83;21167;-41
2021/08/12 05:00:27;;;;;;;5.22;4.22;;;;;;;19.97;69.90;100554.34;1719819;83;21027;-41
2021/08/12 05:02:54;;;;;;;7.05;3.47;;;;;;;20.18;69.49;100559.66;1721300;83;21501;-41
2021/08/12 05:05:20;;;;;;;5.33;4.00;;;;;;;20.31;68.19;100557.17;1722517;83;21503;-42
2021/08/12 05:07:50;;;;;;;10.43;4.00;;;;;;;20.44;67.52;100561.73;1722936;83;20975;-39
2021/08/12 05:10:17;;;;;;;9.75;3.70;;;;;;;20.50;67.97;100562.22;1696258;83;21189;-40
2021/08/12 05:12:45;;;;;;;6.25;3.75;;;;;;;20.68;67.64;100560.28;1720727;82;21011;-41
2021/08/12 05:15:11;;;;;;;4.97;3.62;;;;;;;20.86;65.99;100560.61;1719937;82;20964;-40
2021/08/12 05:17:38;;;;;;;3.77;3.02;;;;;;;20.99;66.80;100558.09;1719886;83;21028;-42
2021/08/12 05:20:06;;;;;;;5.67;3.87;;;;;;;21.17;66.23;100558.73;1720023;83;20983;-45
2021/08/12 05:22:32;;;;;;;6.75;3.77;;;;;;;21.28;65.22;100560.71;1685107;85;21112;-40
2021/08/12 05:24:59;;;;;;;6.08;3.65;;;;;;;21.28;65.13;100562.03;1721235;82;20970;-40
2021/08/12 05:27:26;;;;;;;8.13;3.10;;;;;;;21.36;64.81;100565.05;1721161;83;21018;-40
2021/08/12 05:29:54;;;;;;;4.40;3.40;;;;;;;21.36;65.26;100563.73;1689769;83;21474;-40
2021/08/12 05:32:20;;;;;;;4.97;3.50;;;;;;;21.35;65.73;100569.45;1720000;83;20996;-40
2021/08/12 05:34:47;;;;;;;4.67;3.35;;;;;;;21.33;65.52;100573.97;1719826;83;21119;-41
2021/08/12 05:37:13;;;;;;;6.83;3.30;;;;;;;21.33;65.36;100563.90;1684836;85;20961;-40
2021/08/12 05:39:40;;;;;;;10.53;3.83;;;;;;;21.31;66.19;100557.88;1719641;82;21473;-39
2021/08/12 05:42:07;;;;;;;4.67;3.85;;;;;;;21.28;65.34;100575.19;1719787;83;21480;-41
2021/08/12 05:44:35;;;;;;;5.65;3.98;;;;;;;21.23;65.33;100571.55;1691558;83;21555;-41
2021/08/12 05:47:02;;;;;;;5.15;3.80;;;;;;;21.24;66.81;100566.17;1720301;83;21535;-40
2021/08/12 05:49:30;;;;;;;5.47;3.85;;;;;;;21.27;65.82;100564.28;1722693;83;20971;-39
2021/08/12 05:51:56;;;;;;;10.08;3.95;;;;;;;21.25;66.48;100572.30;1720876;83;21529;-41
2021/08/12 05:54:23;;;;;;;7.67;3.65;;;;;;;21.34;67.33;100565.59;1719837;83;21643;-39
2021/08/12 05:56:50;;;;;;;12.95;4.15;;;;;;;21.42;66.87;100563.34;1719979;83;21010;-41
2021/08/12 05:59:17;;;;;;;4.42;4.08;;;;;;;21.55;67.18;100567.37;1719865;83;21048;-41
2021/08/12 06:01:44;;;;;;;4.83;4.10;;;;;;;21.67;64.96;100570.56;1710466;83;20906;-39
2021/08/12 06:04:12;;;;;;;7.47;4.47;;;;;;;21.69;64.69;100570.48;1720327;83;21692;-40
2021/08/12 06:06:39;;;;;;;4.72;4.22;;;;;;;21.68;64.75;100574.88;1724925;82;21589;-41
2021/08/12 06:09:07;;;;;;;7.10;3.58;;;;;;;21.70;64.85;100569.53;1724980;83;20973;-39
2021/08/12 06:11:34;;;;;;;6.42;3.50;;;;;;;21.72;64.96;100572.05;1668741;84;21152;-40
2021/08/12 06:14:01;;;;;;;5.22;3.08;;;;;;;21.79;65.99;100569.42;1722417;83;20991;-40
2021/08/12 06:16:28;;;;;;;4.12;3.10;;;;;;;21.89;65.68;100569.67;1725272;83;20995;-41
2021/08/12 06:18:56;;;;;;;4.65;3.20;;;;;;;22.02;65.83;100567.92;1725389;83;20997;-39
2021/08/12 06:21:25;;;;;;;3.90;3.50;;;;;;;22.12;64.47;100570.80;1725147;82;21022;-41
2021/08/12 06:23:53;;;;;;;3.98;3.52;;;;;;;22.10;64.69;100572.24;1724866;83;20953;-40
2021/08/12 06:26:21;;;;;;;5.37;3.75;;;;;;;22.12;64.35;100554.98;1724827;81;21501;-41
2021/08/12 06:28:49;;;;;;;8.68;4.10;;;;;;;22.08;63.80;100572.78;1724911;83;21592;-40
2021/08/12 06:31:17;;;;;;;7.40;4.03;;;;;;;22.01;63.95;100570.19;1724920;83;20938;-40
2021/08/12 06:33:44;;;;;;;8.25;4.28;;;;;;;21.99;64.26;100571.25;1695136;83;21080;-42
2021/08/12 06:36:11;;;;;;;18.15;4.20;;;;;;;22.04;64.64;100572.62;1696943;83;21800;-40
2021/08/12 06:38:38;;;;;;;4.58;3.58;;;;;;;22.12;65.06;100571.30;1724662;83;21554;-41
2021/08/12 06:41:04;;;;;;;5.22;3.85;;;;;;;22.16;65.35;100572.29;1724790;83;21573;-39
2021/08/12 06:43:34;;;;;;;6.60;3.30;;;;;;;22.21;65.04;100578.09;1716438;83;20993;-40
2021/08/12 06:46:01;;;;;;;6.90;3.50;;;;;;;22.25;63.89;100578.75;1714570;82;21027;-40
2021/08/12 06:48:31;;;;;;;6.53;3.58;;;;;;;22.30;65.03;100575.82;1723832;82;20959;-42
2021/08/12 06:50:59;;;;;;;7.67;3.72;;;;;;;22.37;64.32;100572.69;1715307;83;20960;-40
2021/08/12 06:53:27;;;;;;;7.28;4.00;;;;;;;22.50;63.04;100570.56;1712193;83;21049;-41
2021/08/12 06:55:53;;;;;;;12.43;3.80;;;;;;;22.62;62.80;100570.20;1696822;83;21008;-41
2021/08/12 06:58:20;;;;;;;8.33;3.62;;;;;;;22.79;63.53;100571.70;1715370;83;21079;-40
2021/08/12 07:00:48;;;;;;;4.67;3.25;;;;;;;22.99;63.34;100571.67;1724186;83;21005;-42
2021/08/12 07:03:16;;;;;;;4.12;3.25;;;;;;;23.10;62.11;100563.83;1715466;82;20958;-41
2021/08/12 07:05:43;;;;;;;3.42;2.80;;;;;;;23.24;61.84;100565.97;1684058;83;21416;-40
2021/08/12 07:08:10;;;;;;;4.12;3.10;;;;;;;23.36;61.23;100565.14;1710647;83;20990;-42
2021/08/12 07:10:39;;;;;;;7.30;3.12;;;;;;;23.48;60.90;100562.11;1707807;83;20972;-40
2021/08/12 07:13:08;;;;;;;3.83;2.90;;;;;;;23.62;60.08;100563.76;1710112;83;21118;-41
2021/08/12 07:15:36;;;;;;;11.73;3.33;;;;;;;23.78;60.32;100557.38;1717204;83;21590;-44
2021/08/12 07:18:03;;;;;;;5.78;3.08;;;;;;;23.87;57.87;100561.12;1713260;83;21052;-41
2021/08/12 07:20:29;;;;;;;3.62;3.30;;;;;;;23.81;56.74;100563.26;1717589;83;21716;-42
2021/08/12 07:22:59;;;;;;;5.10;3.22;;;;;;;23.66;58.06;100557.30;1716811;83;20978;-41
2021/08/12 07:25:26;;;;;;;6.12;3.27;;;;;;;23.56;56.74;100559.38;1717519;83;21113;-41
2021/08/12 07:27:53;;;;;;;6.08;3.33;;;;;;;23.47;57.30;100567.02;1716960;82;20924;-42
2021/08/12 07:30:20;;;;;;;3.42;3.20;;;;;;;23.51;58.40;100568.48;1716953;83;20966;-42
2021/08/12 07:32:47;;;;;;;8.93;3.10;;;;;;;23.65;58.23;100567.98;1716684;82;20909;-42
2021/08/12 07:35:13;;;;;;;15.25;3.60;;;;;;;23.76;58.17;100565.40;1709866;82;21036;-40
2021/08/12 07:37:41;;;;;;;11.25;3.47;;;;;;;23.93;58.71;100568.63;1723041;83;21908;-43
2021/08/12 07:40:10;;;;;;;8.63;3.92;;;;;;;24.11;56.79;100569.92;1711597;82;21068;-41
2021/08/12 07:42:38;;;;;;;4.97;3.08;;;;;;;24.31;58.59;100565.45;1694186;82;20961;-40
2021/08/12 07:45:06;;;;;;;3.42;3.12;;;;;;;24.57;56.53;100566.11;1716417;83;20956;-41
2021/08/12 07:47:33;;;;;;;9.40;3.25;;;;;;;24.73;56.01;100561.80;1680215;84;20982;-42
2021/08/12 07:50:01;;;;;;;3.90;3.35;;;;;;;24.94;55.71;100552.73;1721421;82;21155;-41
2021/08/12 07:52:27;;;;;;;3.40;3.15;;;;;;;25.14;54.20;100551.66;1716930;82;21047;-42
2021/08/12 07:54:55;;;;;;;8.33;3.40;;;;;;;25.23;54.27;100556.22;1716824;82;20883;-40
2021/08/12 07:57:22;;;;;;;3.85;3.02;;;;;;;25.24;54.47;100555.25;1716506;82;20965;-40
2021/08/12 07:59:49;;;;;;;4.60;2.90;;;;;;;25.33;53.00;100551.50;1695155;83;21012;-42
2021/08/12 08:02:16;;;;;;;4.25;3.05;;;;;;;25.52;54.05;100554.41;1716859;83;21197;-43
2021/08/12 08:04:43;;;;;;;3.60;2.77;;;;;;;25.79;50.08;100550.47;1692931;83;21043;-42
2021/08/12 08:07:12;;;;;;;3.10;2.80;;;;;;;25.93;51.40;100560.45;1717417;82;20971;-41
2021/08/12 08:09:39;;;;;;;6.42;2.83;;;;;;;26.14;51.31;100560.95;1715917;83;20987;-42
2021/08/12 08:12:07;;;;;;;5.90;2.90;;;;;;;26.35;50.34;100558.36;1688775;82;20975;-42
2021/08/12 08:14:33;;;;;;;4.28;2.52;;;;;;;26.36;50.22;100564.84;1708972;82;22210;-42
2021/08/12 08:17:01;;;;;;;2.47;2.30;;;;;;;26.53;49.78;100558.14;1716495;83;21048;-41
2021/08/12 08:21:02;;;;;;;4.00;2.70;;;;;;;26.71;48.03;100567.31;1818968;78;23240;-41
2021/08/12 08:23:29;;;;;;;11.03;3.20;;;;;;;26.68;48.72;100575.05;1769403;80;21026;-41
2021/08/12 08:25:55;;;;;;;9.38;2.70;;;;;;;26.53;47.62;100580.70;1753057;80;21283;-42
2021/08/12 08:28:22;;;;;;;4.97;2.77;;;;;;;26.24;47.80;100573.34;1716900;82;21314;-42
2021/08/12 08:30:49;;;;;;;3.70;2.70;;;;;;;26.11;47.31;100568.69;1738334;82;20996;-41
2021/08/12 08:33:15;;;;;;;2.98;2.67;;;;;;;26.08;48.88;100575.08;1723447;82;20979;-43
2021/08/12 08:35:43;;;;;;;3.17;2.55;;;;;;;26.25;49.35;100568.90;1737734;81;21022;-43
2021/08/12 08:38:10;;;;;;;4.00;2.60;;;;;;;26.63;48.82;100572.77;1731347;82;21134;-41
2021/08/12 08:40:36;;;;;;;5.85;2.85;;;;;;;26.74;49.87;100572.36;1721060;82;21002;-41
2021/08/12 08:43:03;;;;;;;3.37;2.80;;;;;;;26.94;49.33;100576.84;1720718;82;21050;-42
2021/08/12 08:45:29;;;;;;;21.20;3.40;;;;;;;26.96;48.19;100573.56;1720059;82;21179;-41
2021/08/12 08:47:57;;;;;;;16.25;3.20;;;;;;;26.93;49.23;100575.16;1730727;82;21034;-42
2021/08/12 08:50:27;;;;;;;21.20;4.05;;;;;;;26.88;49.11;100581.33;1721208;82;21021;-43
2021/08/12 08:52:54;;;;;;;15.48;3.08;;;;;;;26.83;52.98;100580.85;1745891;82;20944;-41
2021/08/12 08:55:23;;;;;;;23.38;3.83;;;;;;;26.90;53.31;100584.69;1722853;82;20932;-41
2021/08/12 08:57:58;;;;;;;15.30;3.15;;;;;;;26.93;53.43;100577.81;1719113;83;21030;-42
2021/08/12 09:00:26;;;;;;;5.12;3.22;;;;;;;26.79;52.67;100581.62;1720544;82;20979;-42
2021/08/12 09:02:54;;;;;;;6.70;2.80;;;;;;;26.60;53.49;100584.98;1732243;80;20944;-43
2021/08/12 09:05:21;;;;;;;10.38;4.00;;;;;;;26.48;48.38;100580.22;1739786;82;21537;-43
2021/08/12 09:07:50;;;;;;;5.12;3.15;;;;;;;26.53;48.89;100587.80;1725519;82;20869;-43
2021/08/12 09:10:17;;;;;;;3.02;2.83;;;;;;;26.81;48.99;100587.64;1731793;81;20969;-43
2021/08/12 09:12:45;;;;;;;2.77;2.58;;;;;;;27.28;45.41;100579.67;1740219;82;21000;-43
2021/08/12 09:15:18;;;;;;;6.75;2.72;;;;;;;27.37;48.08;100587.33;1728048;82;21130;-41
2021/08/12 09:17:44;;;;;;;3.98;2.67;;;;;;;27.15;46.43;100589.20;1723519;81;21030;-42
2021/08/12 09:20:26;;;;;;;4.58;3.00;;;;;;;27.27;47.28;100592.61;1724480;82;22264;-43
2021/08/12 09:23:04;;;;;;;3.47;2.77;;;;;;;27.42;45.70;100594.91;1730645;80;21043;-42
2021/08/12 09:25:42;;;;;;;2.50;2.30;;;;;;;27.47;47.74;100589.55;1726218;82;21022;-42
2021/08/12 09:28:17;;;;;;;10.23;3.30;;;;;;;27.67;47.35;100589.63;1727873;82;21194;-43
2021/08/12 09:31:03;;;;;;;4.70;3.40;;;;;;;27.80;49.53;100596.02;1732340;82;21027;-43
2021/08/12 09:33:42;;;;;;;6.80;3.55;;;;;;;27.54;50.12;100591.21;1727279;82;22324;-44
2021/08/12 09:36:30;;;;;;;5.40;3.27;;;;;;;27.11;52.24;100597.95;1733118;82;20984;-43
2021/08/12 09:39:22;;;;;;;14.65;3.65;;;;;;;26.99;53.03;100600.82;1698230;82;21656;-41
2021/08/12 09:41:51;;;;;;;26.50;4.65;;;;;;;26.81;53.26;100595.60;1735710;82;21805;-41
2021/08/12 09:44:37;;;;;;;14.95;3.90;;;;;;;26.73;53.62;100601.20;1732428;82;21019;-42
2021/08/12 09:47:15;;;;;;;13.98;4.22;;;;;;;26.78;54.12;100610.94;1731412;81;21030;-42
2021/08/12 09:49:45;;;;;;;15.88;3.83;;;;;;;26.91;54.90;100611.62;1732124;82;21000;-43
2021/08/12 09:52:31;;;;;;;9.60;4.20;;;;;;;26.88;55.03;100622.98;1743865;82;20893;-41
2021/08/12 09:55:23;;;;;;;8.48;3.70;;;;;;;26.78;54.23;100626.87;1742622;82;21136;-42
2021/08/12 10:28:43;;;;;;;18.60;4.20;;;;;;;27.18;52.44;100630.61;1833714;76;22867;-43
2021/08/12 10:31:10;;;;;;;10.08;3.80;;;;;;;27.03;53.79;100634.96;1817022;77;21017;-42
2021/08/12 10:33:36;;;;;;;5.70;3.42;;;;;;;27.09;51.86;100626.93;1744416;80;21121;-42
2021/08/12 10:36:04;;;;;;;10.85;3.58;;;;;;;27.08;51.56;100643.84;1762090;80;20920;-42
2021/08/12 10:38:31;;;;;;;22.55;3.85;;;;;;;27.00;53.52;100642.34;1741796;79;21034;-41
2021/08/12 10:40:57;;;;;;;15.70;4.10;;;;;;;27.21;52.98;100639.64;1775841;79;20987;-41
2021/08/12 10:43:26;;;;;;;20.08;4.15;;;;;;;27.49;49.68;100631.44;1778129;80;21224;-43
2021/08/12 10:45:58;;;;;;;28.27;4.05;;;;;;;27.71;50.69;100632.23;1747242;80;21061;-41
2021/08/12 10:48:28;;;;;;;26.27;4.53;;;;;;;27.95;48.16;100629.70;1757366;79;20932;-41
2021/08/12 10:51:11;;;;;;;11.97;3.50;;;;;;;27.92;48.85;100632.64;1760647;80;21690;-42
2021/08/12 10:53:45;;;;;;;20.95;4.05;;;;;;;28.09;49.47;100648.40;1751959;80;20964;-40
2021/08/12 10:56:15;;;;;;;20.65;3.85;;;;;;;28.10;48.81;100644.76;1770894;79;20952;-42
2021/08/12 10:58:44;;;;;;;20.08;4.53;;;;;;;28.06;48.14;100637.53;1749769;80;21135;-40
2021/08/12 11:01:28;;;;;;;14.23;4.28;;;;;;;28.13;47.74;100645.81;1777607;79;21006;-42
2021/08/12 11:04:02;;;;;;;10.70;3.45;;;;;;;28.16;48.67;100637.58;1757545;80;21047;-43
2021/08/12 11:06:40;;;;;;;10.32;2.80;;;;;;;28.22;48.14;100643.67;1747816;80;21717;-43
2021/08/12 11:09:09;;;;;;;4.90;2.77;;;;;;;28.34;47.86;100653.69;1779648;80;21713;-40
2021/08/12 11:11:42;;;;;;;4.05;3.05;;;;;;;28.58;43.04;100651.59;1752427;79;21957;-41
2021/08/12 11:14:13;;;;;;;5.70;2.98;;;;;;;28.75;42.78;100654.02;1754459;80;21601;-40
2021/08/12 11:16:49;;;;;;;3.70;3.10;;;;;;;28.98;40.85;100646.55;1753305;80;21456;-41
2021/08/12 11:19:28;;;;;;;13.10;3.52;;;;;;;29.04;41.24;100645.15;1746072;80;20939;-41
2021/08/12 11:21:56;;;;;;;12.03;3.70;;;;;;;29.21;42.06;100644.88;1736790;80;21071;-42
2021/08/12 11:24:29;;;;;;;22.00;3.95;;;;;;;28.81;43.98;100648.14;1775294;80;20930;-43
2021/08/12 11:27:03;;;;;;;5.08;3.02;;;;;;;28.45;45.50;100665.19;1746834;80;21020;-43
2021/08/12 11:29:34;;;;;;;12.65;2.92;;;;;;;28.45;44.21;100662.02;1736604;81;21038;-41
2021/08/12 11:32:14;;;;;;;7.72;3.40;;;;;;;28.50;41.97;100656.28;1768314;80;20928;-44
2021/08/12 11:34:56;;;;;;;12.35;3.52;;;;;;;28.70;42.73;100650.44;1763932;79;20889;-43
2021/08/12 11:37:29;;;;;;;16.75;3.47;;;;;;;28.71;44.50;100642.80;1743602;80;21119;-43
2021/08/12 11:40:07;;;;;;;2.65;2.42;;;;;;;28.58;43.16;100640.44;1760016;80;21561;-43
2021/08/12 11:42:44;;;;;;;28.52;4.15;;;;;;;28.42;41.94;100645.48;1765160;79;21019;-42
2021/08/12 11:45:14;;;;;;;26.60;4.33;;;;;;;28.35;43.56;100643.39;1760563;81;21556;-42
2021/08/12 11:47:46;;;;;;;86.02;7.35;;;;;;;28.34;43.89;100637.72;1734232;81;20992;-41
2021/08/12 11:50:14;;;;;;;9.68;3.40;;;;;;;28.21;45.02;100631.85;1739771;81;21056;-43
2021/08/12 11:52:49;;;;;;;48.98;5.25;;;;;;;28.40;45.72;100637.15;1773508;80;20929;-42
2021/08/12 11:55:20;;;;;;;57.95;5.67;;;;;;;28.47;42.96;100635.28;1754480;80;21545;-43
2021/08/12 11:57:52;;;;;;;29.18;3.83;;;;;;;28.18;44.52;100629.47;1733309;81;21905;-42
2021/08/12 12:00:23;;;;;;;33.67;3.95;;;;;;;27.80;45.25;100629.25;1729812;81;21058;-41
2021/08/12 12:02:58;;;;;;;9.88;3.25;;;;;;;27.50;44.29;100629.14;1712258;82;21191;-42
2021/08/12 12:05:34;;;;;;;42.98;5.70;;;;;;;27.31;45.20;100625.93;1734885;81;21062;-43